Station Historical Data
Daily Summary for November 19, 2017 Units:  Metric    English   Both
« Previous Day
Next Day »
Daily Weekly Monthly Yearly Custom
  High: Low: Average:
Temperature: 8.8 °C -0.8 °C 2.3 °C
Dew Point: 7.8 °C -4.7 °C -0.7 °C
Humidity: 93% 70% 81%
Wind Speed: 27.4km/h 0km/h 10.8km/h
Wind Gust: 35.4km/h - -
Wind- - WNW
Pressure: 1012.4 hPa 984.3 hPa -
Precipitation: 0 mm    
Historical Graphs
 
 
Tabular Data for November 19, 2017
Time Temperature Dew Point Pressure Wind Wind Speed Wind Gust Humidity Rainfall Rate (Hourly)
00:04 8.8 °C 7.8 °C 984.3 hPa Calm   4.8 km/h 93% 2.03 mm
00:09 8.8 °C 7.8 °C 984.3 hPa NW 1.6 km/h 14.5 km/h 93% 2.03 mm
00:14 8.8 °C 7.7 °C 984.3 hPa NW 4.8 km/h 14.5 km/h 93% 2.29 mm
00:24 8.6 °C 7.5 °C 984.3 hPa NNW 14.5 km/h 14.5 km/h 93% 1.78 mm
00:29 8.4 °C 7.4 °C 984.3 hPa NW 6.4 km/h 17.7 km/h 93% 1.78 mm
00:34 8.3 °C 7.3 °C 984.3 hPa NW 8 km/h 20.9 km/h 93% 1.78 mm
00:39 8.3 °C 7.2 °C 984.3 hPa NW 11.3 km/h 19.3 km/h 93% 1.78 mm
00:44 8.2 °C 7.1 °C 984.6 hPa NW 24.1 km/h 29 km/h 93% 1.52 mm
00:49 7.8 °C 6.8 °C 984.6 hPa WNW 8 km/h 27.4 km/h 93% 1.78 mm
00:54 7.4 °C 6.2 °C 984.6 hPa NW 4.8 km/h 32.2 km/h 92% 1.52 mm
00:59 6.6 °C 5.4 °C 984.6 hPa NNW 11.3 km/h 32.2 km/h 92% 1.52 mm
01:05 5.9 °C 4.7 °C 985 hPa NW 11.3 km/h 32.2 km/h 92% 1.27 mm
01:10 5.6 °C 4.3 °C 986 hPa West 12.9 km/h 29 km/h 92% 1.52 mm
01:15 5.3 °C 4.2 °C 986 hPa NW 19.3 km/h 32.2 km/h 93% 2.03 mm
01:25 5 °C 3.9 °C 986.7 hPa NNW 11.3 km/h 27.4 km/h 93% 2.29 mm
01:35 4.7 °C 3.6 °C 987 hPa NNW 14.5 km/h 32.2 km/h 93% 2.54 mm
01:40 4.6 °C 3.5 °C 987.4 hPa NNW 16.1 km/h 27.4 km/h 93% 3.05 mm
01:45 4.5 °C 3.4 °C 987.4 hPa NW 14.5 km/h 29 km/h 93% 3.56 mm
01:50 4.4 °C 3.3 °C 987.4 hPa NNW 22.5 km/h 29 km/h 92% 3.81 mm
02:10 3.8 °C 2.6 °C 988.4 hPa NW 9.7 km/h 27.4 km/h 92% 3.81 mm
02:20 3.3 °C 2.2 °C 988.7 hPa NW 14.5 km/h 27.4 km/h 92% 3.05 mm
02:25 3.2 °C 2 °C 989.4 hPa NW 16.1 km/h 25.7 km/h 92% 3.05 mm
02:30 2.9 °C 1.8 °C 989.4 hPa NW 9.7 km/h 25.7 km/h 92% 3.05 mm
02:35 2.6 °C 1.3 °C 990.1 hPa NW 11.3 km/h 35.4 km/h 91% 2.79 mm
02:40 2.4 °C 1.3 °C 990.1 hPa NW 12.9 km/h 35.4 km/h 92% 2.29 mm
02:45 2.3 °C 1.1 °C 990.4 hPa North 19.3 km/h 22.5 km/h 92% 1.78 mm
02:50 2.2 °C 1.1 °C 990.4 hPa NNW 14.5 km/h 27.4 km/h 92% 1.27 mm
02:55 2.3 °C 1.1 °C 990.7 hPa WNW 8 km/h 20.9 km/h 92% 1.27 mm
03:05 2.2 °C 1.1 °C 991.1 hPa NW 8 km/h 22.5 km/h 92% 1.02 mm
03:10 2.2 °C 1 °C 991.1 hPa NW 9.7 km/h 25.7 km/h 92% 1.02 mm
03:15 2.1 °C 0.7 °C 991.1 hPa NW 12.9 km/h 33.8 km/h 91% 0.76 mm
03:20 2 °C 0.7 °C 991.4 hPa NW 14.5 km/h 33.8 km/h 91% 1.02 mm
03:25 1.9 °C 0.6 °C 991.4 hPa NW 11.3 km/h 35.4 km/h 91% 0.76 mm
03:30 1.8 °C 0.4 °C 991.8 hPa NW 12.9 km/h 35.4 km/h 91% 0.76 mm
03:34 1.6 °C 0.3 °C 992.1 hPa NW 6.4 km/h 24.1 km/h 91% 0.76 mm
03:45 1.3 °C -0.1 °C 992.4 hPa NNW 8 km/h 25.7 km/h 91% 0.76 mm
03:50 1.2 °C -0.1 °C 992.8 hPa NW 11.3 km/h 24.1 km/h 91% 1.02 mm
03:55 1.2 °C -0.2 °C 993.1 hPa WNW 12.9 km/h 20.9 km/h 91% 0.76 mm
04:00 1.2 °C -0.2 °C 993.5 hPa West 19.3 km/h 25.7 km/h 91% 0.76 mm
04:05 1.2 °C -0.2 °C 993.5 hPa NW 1.6 km/h 20.9 km/h 91% 0.76 mm
04:10 1.2 °C -0.2 °C 993.8 hPa WNW 11.3 km/h 24.1 km/h 91% 1.02 mm
04:15 1.2 °C -0.2 °C 994.1 hPa WNW 11.3 km/h 24.1 km/h 91% 1.02 mm
04:20 1.2 °C -0.2 °C 994.5 hPa WNW 12.9 km/h 30.6 km/h 91% 0.76 mm
04:30 1.1 °C -0.2 °C 995.1 hPa West 14.5 km/h 24.1 km/h 91% 1.02 mm
04:35 1.1 °C -0.2 °C 995.1 hPa WNW 16.1 km/h 19.3 km/h 91% 0.76 mm
04:40 1.2 °C -0.2 °C 995.5 hPa WNW 11.3 km/h 25.7 km/h 91% 0.76 mm
04:45 1.1 °C -0.2 °C 995.5 hPa WNW 12.9 km/h 25.7 km/h 91% 1.02 mm
04:50 1 °C -0.3 °C 995.8 hPa WNW 14.5 km/h 29 km/h 91% 0.76 mm
05:00 0.9 °C -0.4 °C 996.2 hPa West 8 km/h 20.9 km/h 91% 0.76 mm
05:05 0.9 °C -0.3 °C 996.2 hPa WNW 9.7 km/h 25.7 km/h 91% 1.02 mm
05:10 1 °C -0.3 °C 996.5 hPa WNW 8 km/h 12.9 km/h 91% 0.76 mm
05:15 1.1 °C -0.2 °C 996.8 hPa WNW 9.7 km/h 19.3 km/h 91% 0.76 mm
05:25 1.4 °C 0.1 °C 997.2 hPa WNW 11.3 km/h 22.5 km/h 91% 1.02 mm
05:30 1.6 °C 0.4 °C 997.2 hPa WNW 11.3 km/h 19.3 km/h 92% 0.76 mm
05:35 1.7 °C 0.6 °C 997.5 hPa NNW 6.4 km/h 16.1 km/h 92% 0.76 mm
05:44 1.9 °C 0.6 °C 997.5 hPa WNW 9.7 km/h 20.9 km/h 91% 0.51 mm
05:50 2 °C 0.7 °C 997.9 hPa WNW 9.7 km/h 20.9 km/h 91% 0.51 mm
05:59 2.2 °C 0.9 °C 998.2 hPa West 9.7 km/h 29 km/h 91% 0.51 mm
06:05 2.3 °C 0.9 °C 998.2 hPa West 11.3 km/h 25.7 km/h 91% 0.25 mm
06:10 2.3 °C 0.8 °C 998.2 hPa West 16.1 km/h 30.6 km/h 90% 0.25 mm
06:15 2.3 °C 0.8 °C 998.2 hPa NNW 9.7 km/h 25.7 km/h 90% 0.25 mm
06:25 2.3 °C 0.6 °C 998.5 hPa WNW 11.3 km/h 33.8 km/h 88% 0 mm
06:30 2.3 °C 0.6 °C 998.9 hPa WNW 11.3 km/h 33.8 km/h 88% 0 mm
06:35 2.4 °C 0.4 °C 998.9 hPa WNW 11.3 km/h 33.8 km/h 87% 0 mm
06:40 2.4 °C 0.3 °C 999.2 hPa WNW 12.9 km/h 25.7 km/h 86% 0 mm
06:45 2.4 °C 0.2 °C 999.2 hPa WNW 12.9 km/h 24.1 km/h 85% 0 mm
06:54 2.6 °C 0.1 °C 999.5 hPa West 9.7 km/h 32.2 km/h 84% 0 mm
06:59 2.4 °C -0.2 °C 999.5 hPa WNW 20.9 km/h 24.1 km/h 83% 0 mm
07:04 2.4 °C -0.2 °C 999.9 hPa WNW 27.4 km/h 27.4 km/h 83% 0 mm
07:09 2.4 °C -0.3 °C 999.9 hPa NNW 4.8 km/h 27.4 km/h 82% 0 mm
07:24 2.3 °C -0.5 °C 1000.2 hPa NW 9.7 km/h 20.9 km/h 82% 0 mm
07:35 2.3 °C -0.3 °C 1000.9 hPa WNW 6.4 km/h 16.1 km/h 83% 0 mm
07:40 2.3 °C -0.5 °C 1000.9 hPa WNW 4.8 km/h 20.9 km/h 82% 0 mm
07:45 2.4 °C -0.4 °C 1000.9 hPa WNW 8 km/h 24.1 km/h 82% 0 mm
07:50 2.4 °C -0.5 °C 1001.2 hPa WNW 9.7 km/h 24.1 km/h 81% 0 mm
07:55 2.6 °C -0.2 °C 1001.2 hPa WNW 9.7 km/h 11.3 km/h 82% 0 mm
08:04 2.6 °C -0.3 °C 1001.6 hPa West 11.3 km/h 20.9 km/h 81% 0 mm
08:10 2.7 °C -0.3 °C 1001.9 hPa WNW 11.3 km/h 20.9 km/h 81% 0 mm
08:14 2.7 °C -0.3 °C 1001.9 hPa West 4.8 km/h 11.3 km/h 81% 0 mm
08:19 2.6 °C -0.3 °C 1001.9 hPa West 1.6 km/h 16.1 km/h 81% 0 mm
08:25 2.6 °C -0.3 °C 1002.3 hPa WSW 6.4 km/h 14.5 km/h 81% 0 mm
08:30 2.6 °C -0.3 °C 1002.3 hPa WSW 6.4 km/h 14.5 km/h 81% 0 mm
08:34 2.6 °C -0.4 °C 1002.3 hPa West 8 km/h 16.1 km/h 81% 0 mm
08:40 2.6 °C -0.4 °C 1002.3 hPa West 8 km/h 20.9 km/h 81% 0 mm
08:45 2.6 °C -0.4 °C 1002.6 hPa West 9.7 km/h 20.9 km/h 81% 0.25 mm
08:50 2.6 °C -0.4 °C 1002.9 hPa West 9.7 km/h 22.5 km/h 81% 0.25 mm
09:00 2.6 °C -0.4 °C 1002.9 hPa WNW 14.5 km/h 17.7 km/h 81% 0.25 mm
09:04 2.6 °C -0.4 °C 1002.9 hPa West 11.3 km/h 19.3 km/h 81% 0.25 mm
09:09 2.6 °C -0.6 °C 1002.9 hPa West 8 km/h 16.1 km/h 80% 0.25 mm
09:14 2.6 °C -0.6 °C 1003.3 hPa West 20.9 km/h 20.9 km/h 80% 0.25 mm
09:20 2.6 °C -0.6 °C 1003.3 hPa WSW 16.1 km/h 22.5 km/h 80% 0.25 mm
09:30 2.7 °C -0.6 °C 1003.3 hPa WNW 3.2 km/h 19.3 km/h 79% 0.25 mm
09:39 2.8 °C -0.8 °C 1003.3 hPa West 9.7 km/h 20.9 km/h 77% 0.25 mm
09:49 3.3 °C -0.3 °C 1003.6 hPa West 9.7 km/h 19.3 km/h 77% 0 mm
10:00 3.3 °C -0.7 °C 1003.6 hPa West 8 km/h 19.3 km/h 75% 0 mm
10:05 3.6 °C -0.3 °C 1003.9 hPa West 9.7 km/h 19.3 km/h 76% 0 mm
10:09 3.6 °C -0.2 °C 1003.9 hPa NW 8 km/h 17.7 km/h 76% 0 mm
10:14 3.6 °C -0.7 °C 1003.9 hPa West 9.7 km/h 24.1 km/h 74% 0 mm
10:19 3.6 °C -0.6 °C 1003.9 hPa WSW 4.8 km/h 19.3 km/h 74% 0 mm
10:24 3.7 °C -0.7 °C 1003.9 hPa West 8 km/h 19.3 km/h 73% 0 mm
10:29 3.7 °C -0.9 °C 1004.3 hPa West 14.5 km/h 25.7 km/h 72% 0 mm
10:35 3.7 °C -0.9 °C 1004.3 hPa West 8 km/h 20.9 km/h 72% 0 mm
10:40 3.8 °C -0.6 °C 1004.3 hPa WNW 11.3 km/h 19.3 km/h 73% 0 mm
10:44 3.8 °C -0.8 °C 1004.3 hPa West 11.3 km/h 29 km/h 72% 0 mm
10:54 3.8 °C -0.9 °C 1004.3 hPa West 12.9 km/h 29 km/h 71% 0 mm
11:00 4.1 °C -0.9 °C 1004.3 hPa West 12.9 km/h 29 km/h 70% 0 mm
11:10 3.8 °C -0.9 °C 1004.3 hPa WSW 12.9 km/h 25.7 km/h 71% 0 mm
11:15 3.6 °C -1.2 °C 1004.3 hPa WSW 8 km/h 24.1 km/h 71% 0 mm
11:19 3.4 °C -1 °C 1004.6 hPa West 3.2 km/h 19.3 km/h 73% 0 mm
11:29 3.2 °C -0.7 °C 1004.6 hPa West 4.8 km/h 20.9 km/h 76% 0 mm
11:34 3.2 °C -0.2 °C 1004.6 hPa WNW 19.3 km/h 19.3 km/h 78% 0 mm
11:39 3.2 °C -0.5 °C 1004.3 hPa WSW 6.4 km/h 22.5 km/h 77% 0 mm
11:44 3.1 °C -0.6 °C 1004.3 hPa WNW 8 km/h 19.3 km/h 77% 0 mm
11:54 2.9 °C -0.7 °C 1004.3 hPa West 11.3 km/h 19.3 km/h 77% 0 mm
12:05 3.1 °C -0.4 °C 1004.3 hPa WNW 9.7 km/h 19.3 km/h 78% 0 mm
12:15 3.1 °C -0.4 °C 1004.6 hPa West 9.7 km/h 19.3 km/h 78% 0 mm
12:19 3 °C -0.4 °C 1004.6 hPa WSW 9.7 km/h 12.9 km/h 78% 0 mm
12:24 2.9 °C -0.3 °C 1004.3 hPa NW 8 km/h 14.5 km/h 79% 0 mm
12:29 2.9 °C -0.2 °C 1004.3 hPa North 6.4 km/h 12.9 km/h 80% 0 mm
12:34 2.8 °C -0.3 °C 1004.3 hPa NW 4.8 km/h 17.7 km/h 80% 0 mm
12:39 3.1 °C 0.1 °C 1004.6 hPa West 1.6 km/h 9.7 km/h 81% 0 mm
12:44 3.2 °C 0.1 °C 1004.6 hPa WNW 6.4 km/h 17.7 km/h 80% 0 mm
12:55 3.3 °C -0.2 °C 1004.6 hPa WNW 1.6 km/h 17.7 km/h 78% 0 mm
12:59 3.4 °C -0.4 °C 1004.3 hPa WNW 9.7 km/h 22.5 km/h 76% 0 mm
13:10 3.6 °C -0.8 °C 1004.3 hPa WNW 11.3 km/h 22.5 km/h 73% 0 mm
13:14 3.6 °C -0.8 °C 1004.3 hPa West 11.3 km/h 22.5 km/h 73% 0 mm
13:20 3.7 °C -1.1 °C 1004.3 hPa WNW 11.3 km/h 24.1 km/h 71% 0 mm
13:24 3.7 °C -1.1 °C 1004.3 hPa SW 6.4 km/h 25.7 km/h 71% 0 mm
13:29 3.7 °C -1.1 °C 1004.6 hPa SW 14.5 km/h 19.3 km/h 71% 0 mm
13:34 3.8 °C -1 °C 1004.6 hPa West 8 km/h 19.3 km/h 71% 0 mm
13:39 3.7 °C -1.1 °C 1004.6 hPa West 11.3 km/h 27.4 km/h 71% 0 mm
13:44 3.7 °C -1.3 °C 1004.6 hPa WSW 9.7 km/h 29 km/h 70% 0 mm
13:55 3.7 °C -1.3 °C 1004.6 hPa West 19.3 km/h 20.9 km/h 70% 0 mm
13:59 3.6 °C -1.3 °C 1004.6 hPa WNW 12.9 km/h 27.4 km/h 70% 0 mm
14:04 3.6 °C -1.3 °C 1004.6 hPa West 14.5 km/h 29 km/h 70% 0 mm
14:14 3.6 °C -1.2 °C 1004.6 hPa West 11.3 km/h 24.1 km/h 71% 0 mm
14:25 3.2 °C -1.2 °C 1005 hPa WNW 9.7 km/h 22.5 km/h 73% 0 mm
14:29 2.9 °C -1.1 °C 1005 hPa WSW 14.5 km/h 24.1 km/h 75% 0 mm
14:34 2.7 °C -1.2 °C 1005 hPa West 6.4 km/h 20.9 km/h 76% 0 mm
14:49 2.6 °C -0.7 °C 1005 hPa West 14.5 km/h 17.7 km/h 79% 0 mm
14:55 2.6 °C -0.7 °C 1005 hPa West 12.9 km/h 16.1 km/h 79% 0 mm
15:00 2.7 °C -0.8 °C 1005 hPa West 6.4 km/h 14.5 km/h 78% 0 mm
15:05 2.8 °C -0.7 °C 1005 hPa West 3.2 km/h 17.7 km/h 78% 0 mm
15:09 2.9 °C -0.6 °C 1005.3 hPa WNW 8 km/h 25.7 km/h 78% 0.25 mm
15:14 3 °C -0.8 °C 1005.3 hPa WNW 9.7 km/h 27.4 km/h 76% 0.25 mm
15:19 3 °C -1 °C 1005.6 hPa West 11.3 km/h 27.4 km/h 75% 0.25 mm
15:24 2.8 °C -1.1 °C 1005.6 hPa West 14.5 km/h 27.4 km/h 76% 0.25 mm
15:29 2.7 °C -0.9 °C 1006 hPa WNW 16.1 km/h 27.4 km/h 77% 0.25 mm
15:39 2.5 °C -0.9 °C 1006 hPa West 14.5 km/h 24.1 km/h 78% 0.25 mm
15:54 2.3 °C -1.1 °C 1006.3 hPa WNW 16.1 km/h 30.6 km/h 78% 0.25 mm
15:59 2.3 °C -1.3 °C 1006.3 hPa WNW 12.9 km/h 20.9 km/h 77% 0.25 mm
16:10 2.3 °C -1.3 °C 1006.3 hPa WNW 20.9 km/h 22.5 km/h 77% 0 mm
16:29 2.1 °C -2.2 °C 1007 hPa WNW 16.1 km/h 35.4 km/h 73% 0 mm
16:35 1.9 °C -2.6 °C 1007 hPa WNW 25.7 km/h 30.6 km/h 72% 0 mm
16:39 1.8 °C -2.5 °C 1007 hPa NW 19.3 km/h 30.6 km/h 73% 0 mm
16:54 1.7 °C -2.8 °C 1007.3 hPa WNW 14.5 km/h 29 km/h 72% 0 mm
17:09 1.5 °C -3 °C 1007.7 hPa West 20.9 km/h 27.4 km/h 72% 0 mm
17:14 1.4 °C -3.1 °C 1007.7 hPa NW 17.7 km/h 27.4 km/h 72% 0 mm
17:29 1.3 °C -3.1 °C 1007.7 hPa WNW 11.3 km/h 27.4 km/h 73% 0 mm
17:34 1.2 °C -3.1 °C 1008 hPa WNW 11.3 km/h 27.4 km/h 73% 0 mm
17:39 1.2 °C -3.1 °C 1008 hPa WNW 11.3 km/h 20.9 km/h 73% 0 mm
17:44 1.2 °C -3.2 °C 1008 hPa WNW 11.3 km/h 20.9 km/h 73% 0 mm
18:04 1.1 °C -3.2 °C 1008.4 hPa WNW 12.9 km/h 17.7 km/h 73% 0 mm
18:14 1.1 °C -3.2 °C 1008.7 hPa WNW 8 km/h 22.5 km/h 73% 0 mm
18:19 1.1 °C -3.2 °C 1008.7 hPa NW 14.5 km/h 20.9 km/h 73% 0 mm
18:29 1 °C -3.1 °C 1009 hPa WNW 12.9 km/h 19.3 km/h 74% 0 mm
18:34 0.9 °C -3.4 °C 1009 hPa WNW 8 km/h 20.9 km/h 73% 0 mm
18:39 0.8 °C -3.4 °C 1009.4 hPa WNW 9.7 km/h 24.1 km/h 73% 0 mm
18:49 0.7 °C -3.6 °C 1009.4 hPa NW 11.3 km/h 24.1 km/h 73% 0 mm
18:59 0.6 °C -3.8 °C 1009.4 hPa NW 11.3 km/h 24.1 km/h 72% 0 mm
19:04 0.6 °C -3.8 °C 1009.7 hPa West 12.9 km/h 25.7 km/h 72% 0 mm
19:09 0.6 °C -4.1 °C 1009.4 hPa WNW 12.9 km/h 25.7 km/h 71% 0 mm
19:14 0.5 °C -4.3 °C 1009.4 hPa WNW 14.5 km/h 25.7 km/h 70% 0 mm
19:19 0.4 °C -4.4 °C 1009.4 hPa WNW 11.3 km/h 25.7 km/h 70% 0 mm
19:29 0.3 °C -4.3 °C 1009.7 hPa WNW 12.9 km/h 19.3 km/h 71% 0 mm
19:39 0.3 °C -4.4 °C 1010 hPa WNW 9.7 km/h 20.9 km/h 71% 0 mm
19:49 0.2 °C -4.4 °C 1010 hPa WNW 9.7 km/h 22.5 km/h 71% 0 mm
19:54 0.2 °C -4.4 °C 1010 hPa NW 11.3 km/h 22.5 km/h 71% 0 mm
19:59 0.2 °C -4.4 °C 1010 hPa West 11.3 km/h 17.7 km/h 71% 0 mm
20:19 0.2 °C -4.6 °C 1010.4 hPa NW 8 km/h 25.7 km/h 70% 0 mm
20:29 0.2 °C -4.5 °C 1010.4 hPa West 9.7 km/h 16.1 km/h 71% 0 mm
20:34 0.1 °C -4.2 °C 1010.4 hPa WSW 4.8 km/h 16.1 km/h 73% 0 mm
20:39 0.1 °C -4.2 °C 1010.7 hPa WNW 3.2 km/h 20.9 km/h 73% 0 mm
20:44 -0.1 °C -4.3 °C 1010.7 hPa West 8 km/h 20.9 km/h 73% 0 mm
20:49 -0.1 °C -4.3 °C 1010.7 hPa West 8 km/h 19.3 km/h 73% 0 mm
20:54 -0.1 °C -4.5 °C 1010.7 hPa WNW 8 km/h 19.3 km/h 72% 0 mm
20:59 -0.1 °C -4.7 °C 1010.7 hPa WNW 11.3 km/h 22.5 km/h 71% 0 mm
21:09 -0.1 °C -4.7 °C 1011.1 hPa WNW 9.7 km/h 19.3 km/h 71% 0 mm
21:14 -0.1 °C -4.7 °C 1011.1 hPa WNW 9.7 km/h 19.3 km/h 71% 0 mm
21:19 -0.1 °C -4.7 °C 1011.1 hPa West 12.9 km/h 17.7 km/h 71% 0 mm
21:24 -0.1 °C -4.7 °C 1011.1 hPa West 4.8 km/h 24.1 km/h 71% 0 mm
21:29 -0.2 °C -4.6 °C 1011.1 hPa WNW 14.5 km/h 22.5 km/h 72% 0 mm
21:34 -0.2 °C -4.6 °C 1011.1 hPa WNW 9.7 km/h 20.9 km/h 72% 0 mm
21:39 -0.2 °C -4.5 °C 1011.4 hPa West 4.8 km/h 12.9 km/h 73% 0 mm
21:44 -0.3 °C -4.3 °C 1011.4 hPa WSW 8 km/h 11.3 km/h 74% 0 mm
21:49 -0.3 °C -4.1 °C 1011.4 hPa West 6.4 km/h 16.1 km/h 76% 0 mm
21:54 -0.4 °C -3.9 °C 1011.4 hPa West 8 km/h 16.1 km/h 77% 0 mm
21:59 -0.4 °C -3.7 °C 1011.4 hPa West 8 km/h 22.5 km/h 79% 0 mm
22:04 -0.5 °C -3.5 °C 1011.4 hPa West 8 km/h 22.5 km/h 80% 0 mm
22:14 -0.6 °C -3.3 °C 1011.7 hPa West 8 km/h 17.7 km/h 82% 0 mm
22:19 -0.7 °C -3.3 °C 1011.7 hPa West 11.3 km/h 19.3 km/h 82% 0 mm
22:29 -0.8 °C -3.4 °C 1011.7 hPa West 6.4 km/h 20.9 km/h 82% 0 mm
22:54 -0.7 °C -3.4 °C 1011.7 hPa West 9.7 km/h 30.6 km/h 82% 0 mm
23:04 -0.7 °C -3.4 °C 1012.1 hPa West 11.3 km/h 25.7 km/h 82% 0 mm
23:14 -0.7 °C -3.5 °C 1012.1 hPa WSW 11.3 km/h 24.1 km/h 81% 0 mm
23:19 -0.7 °C -3.5 °C 1012.1 hPa WSW 17.7 km/h 22.5 km/h 81% 0 mm
23:24 -0.7 °C -3.5 °C 1012.1 hPa WSW 6.4 km/h 19.3 km/h 81% 0 mm
23:39 -0.6 °C -3.6 °C 1012.4 hPa West 9.7 km/h 19.3 km/h 80% 0 mm
23:44 -0.6 °C -3.8 °C 1012.4 hPa West 8 km/h 20.9 km/h 79% 0 mm
23:54 -0.5 °C -4.1 °C 1012.4 hPa WSW 9.7 km/h 22.5 km/h 77% 0 mm
23:59 -0.5 °C -4.2 °C 1012.4 hPa West 11.3 km/h 22.5 km/h 76% 0 mm
Buffalo, New York, USA
Compliments of Weather Underground - 2 mb